Oscuro, New Mexico
Current Conditions -  °F | °C
As of 3:55 AM on Sunday 23 Nov 2014 (Local Time) from KSRR Reporting Station
Clear Clear  
Wind Chill: 37°   Ceiling: Unl
Heat Index: 45°   Visibility: 10mi
Dew Point: 14°   Wind: 18mph
Humidity: 29%   Direction: 280°W
Pressure: 29.82"   Gusts: 25mph
Location:  33.6269°N, 105.978°W
Report Text: KSRR 231055Z AUTO 28016G22KT 10SM CLR 07/M10 A2982 RMK AO2
Loading
Personal Weather Stations






























Interactive Weather Map New forecast layout! Learn more

10-Day Weather Forecast

Advertisements
Track Severe Weather on mobile